Terminal Aerodrome Forecast
Issued by NWS Pocatello, ID

Home | Current Version | Previous Version | Text Only | Print | Product List | Glossary On
Versions: 1 2 3 4 5 6 7 8 9 10 11 12 13 14 15 16 17 18 19 20 21 22 23 24 25 26 27 28 29
353
FTUS45 KPIH 082320
TAFPIH
TAF
KPIH 082320Z 0900/0924 05005KT 6SM BR OVC006
     FM090600 VRB04KT 1/2SM FZFG VV004
     FM091800 04006KT P6SM BKN006
     FM092100 04006KT P6SM SCT008 SCT180=

USA.gov is the U.S. government's official web portal to all federal, state and local government web resources and services.